Time;durP1;ratioP1;P1;durP2;ratioP2;P2;SDS_P1;SDS_P2;PMS_P1;PMS_P2;Temp;Humidity;BMP_temperature;BMP_pressure;BME280_temperature;BME280_humidity;BME280_pressure;Samples;Min_cycle;Max_cycle;Signal;HPM_P1;HPM_P2
2022/12/13 00:00:21;;;;;;;14.17;9.87;;;;;;;;;;5067980;28;20214;-67
2022/12/13 00:02:49;;;;;;;17.93;10.67;;;;;;;;;;5058355;28;20218;-67
2022/12/13 00:05:16;;;;;;;15.43;10.10;;;;;;;;;;5057586;28;20218;-67
2022/12/13 00:07:43;;;;;;;17.73;11.27;;;;;;;;;;5054642;28;20213;-67
2022/12/13 00:10:11;;;;;;;18.53;10.80;;;;;;;;;;5062711;28;20208;-67
2022/12/13 00:12:38;;;;;;;16.10;9.93;;;;;;;;;;5056199;28;20199;-67
2022/12/13 00:15:05;;;;;;;15.97;10.43;;;;;;;;;;5058917;28;20218;-67
2022/12/13 00:17:33;;;;;;;16.13;10.73;;;;;;;;;;5059428;28;20214;-66
2022/12/13 00:20:02;;;;;;;14.57;10.17;;;;;;;;;;5056297;28;20202;-67
2022/12/13 00:22:29;;;;;;;16.40;10.60;;;;;;;;;;5058969;28;20215;-67
2022/12/13 00:24:56;;;;;;;17.57;10.70;;;;;;;;;;5058291;28;20249;-67
2022/12/13 00:27:23;;;;;;;16.50;10.60;;;;;;;;;;5060553;28;20195;-66
2022/12/13 00:29:51;;;;;;;15.03;10.43;;;;;;;;;;5056466;28;20199;-67
2022/12/13 00:32:18;;;;;;;16.53;10.73;;;;;;;;;;5058099;28;20215;-67
2022/12/13 00:34:45;;;;;;;16.03;10.50;;;;;;;;;;5057739;28;20206;-67
2022/12/13 00:37:13;;;;;;;15.87;11.10;;;;;;;;;;5054971;28;20204;-67
2022/12/13 00:39:40;;;;;;;20.60;11.87;;;;;;;;;;5058989;28;20202;-67
2022/12/13 00:42:07;;;;;;;24.83;14.60;;;;;;;;;;5054336;28;20200;-67
2022/12/13 00:44:35;;;;;;;28.13;15.73;;;;;;;;;;5061690;28;20237;-67
2022/12/13 00:47:02;;;;;;;18.67;12.27;;;;;;;;;;5063015;28;20202;-67
2022/12/13 00:49:29;;;;;;;17.17;11.40;;;;;;;;;;5056778;28;20205;-67
2022/12/13 00:51:56;;;;;;;16.67;11.30;;;;;;;;;;5056848;28;20210;-67
2022/12/13 00:54:24;;;;;;;18.97;11.43;;;;;;;;;;5055627;28;20204;-67
2022/12/13 00:56:52;;;;;;;15.63;10.77;;;;;;;;;;5063109;28;20199;-67
2022/12/13 00:59:19;;;;;;;20.20;12.23;;;;;;;;;;5053839;28;20212;-67
2022/12/13 01:01:46;;;;;;;18.27;11.27;;;;;;;;;;5054135;28;20204;-67
2022/12/13 01:04:13;;;;;;;20.40;11.37;;;;;;;;;;5058491;28;20210;-67
2022/12/13 01:06:41;;;;;;;16.50;10.70;;;;;;;;;;5059112;28;20230;-67
2022/12/13 01:09:13;;;;;;;16.97;11.40;;;;;;;;;;5055818;28;20205;-67
2022/12/13 01:11:42;;;;;;;17.97;11.60;;;;;;;;;;5056393;28;20205;-67
2022/12/13 01:14:09;;;;;;;19.80;11.37;;;;;;;;;;5055726;28;20205;-67
2022/12/13 01:16:36;;;;;;;18.63;11.27;;;;;;;;;;5056679;28;20207;-67
2022/12/13 01:19:03;;;;;;;18.00;11.60;;;;;;;;;;5061029;28;20199;-67
2022/12/13 01:21:30;;;;;;;18.33;11.07;;;;;;;;;;5056352;28;20204;-67
2022/12/13 01:24:02;;;;;;;17.37;11.73;;;;;;;;;;5055281;28;20206;-67
2022/12/13 01:26:29;;;;;;;17.70;11.77;;;;;;;;;;5057195;28;20232;-67
2022/12/13 01:28:58;;;;;;;15.73;11.17;;;;;;;;;;5061395;28;20195;-67
2022/12/13 01:31:25;;;;;;;16.67;10.50;;;;;;;;;;5060195;28;20293;-67
2022/12/13 01:33:52;;;;;;;17.20;11.27;;;;;;;;;;5057999;28;20215;-67
2022/12/13 01:36:20;;;;;;;17.03;10.17;;;;;;;;;;5054604;28;20215;-67
2022/12/13 01:38:47;;;;;;;17.13;11.33;;;;;;;;;;5054407;28;20214;-67
2022/12/13 01:41:15;;;;;;;16.03;10.77;;;;;;;;;;5057368;28;20209;-67
2022/12/13 01:43:53;;;;;;;18.80;11.43;;;;;;;;;;5052765;28;20236;-67
2022/12/13 01:46:21;;;;;;;16.63;10.57;;;;;;;;;;5059573;28;20219;-67
2022/12/13 01:48:51;;;;;;;17.63;10.40;;;;;;;;;;5055681;28;20217;-67
2022/12/13 01:51:19;;;;;;;18.10;11.40;;;;;;;;;;5063007;28;20200;-67
2022/12/13 01:53:47;;;;;;;14.73;9.80;;;;;;;;;;5060825;28;20203;-67
2022/12/13 01:56:16;;;;;;;15.90;11.00;;;;;;;;;;5059150;28;20207;-67
2022/12/13 01:58:44;;;;;;;17.83;10.63;;;;;;;;;;5063928;28;20546;-67
2022/12/13 02:01:11;;;;;;;16.87;11.33;;;;;;;;;;5067499;28;20203;-67
2022/12/13 02:03:40;;;;;;;15.80;10.23;;;;;;;;;;5060109;28;20200;-67
2022/12/13 02:06:10;;;;;;;17.67;11.47;;;;;;;;;;5062544;28;20406;-67
2022/12/13 02:08:37;;;;;;;19.67;11.37;;;;;;;;;;5064311;28;20207;-67
2022/12/13 02:11:05;;;;;;;18.43;10.83;;;;;;;;;;5060518;28;20195;-67
2022/12/13 02:13:32;;;;;;;18.50;10.57;;;;;;;;;;5059704;28;20211;-67
2022/12/13 02:16:04;;;;;;;19.07;11.63;;;;;;;;;;5064113;28;20219;-67
2022/12/13 02:18:41;;;;;;;16.13;10.30;;;;;;;;;;5061049;28;20331;-67
2022/12/13 02:21:14;;;;;;;15.37;10.23;;;;;;;;;;5056278;28;20203;-67
2022/12/13 02:24:12;;;;;;;15.80;10.30;;;;;;;;;;5060192;28;20206;-67
2022/12/13 02:26:49;;;;;;;16.17;10.23;;;;;;;;;;5059846;28;20224;-67
2022/12/13 02:29:24;;;;;;;17.50;10.90;;;;;;;;;;5057663;28;20221;-67
2022/12/13 02:31:57;;;;;;;18.50;11.50;;;;;;;;;;5060582;28;20195;-67
2022/12/13 02:34:26;;;;;;;17.13;11.37;;;;;;;;;;5057206;28;20209;-67
2022/12/13 02:37:00;;;;;;;15.93;9.40;;;;;;;;;;5056544;28;20199;-67
2022/12/13 02:39:30;;;;;;;17.33;11.20;;;;;;;;;;5061110;28;20203;-67
2022/12/13 02:41:59;;;;;;;15.83;10.50;;;;;;;;;;5058696;28;20212;-67
2022/12/13 02:44:27;;;;;;;17.33;10.43;;;;;;;;;;5058116;28;20239;-67
2022/12/13 02:46:58;;;;;;;16.73;10.43;;;;;;;;;;5057764;28;20211;-67
2022/12/13 02:49:28;;;;;;;15.37;10.17;;;;;;;;;;5059509;28;20207;-67
2022/12/13 02:51:57;;;;;;;16.30;10.50;;;;;;;;;;5058000;28;20199;-67
2022/12/13 02:54:24;;;;;;;16.13;10.10;;;;;;;;;;5059800;28;20208;-67
2022/12/13 02:56:55;;;;;;;16.37;10.13;;;;;;;;;;5059749;28;20192;-67
2022/12/13 02:59:23;;;;;;;16.00;9.57;;;;;;;;;;5057306;28;20214;-67
2022/12/13 03:01:55;;;;;;;15.83;10.50;;;;;;;;;;5061263;28;20203;-67
2022/12/13 03:04:30;;;;;;;17.93;10.40;;;;;;;;;;5056850;28;20207;-67
2022/12/13 03:07:00;;;;;;;15.90;10.47;;;;;;;;;;5059250;28;20211;-67
2022/12/13 03:09:37;;;;;;;15.83;10.33;;;;;;;;;;5058961;28;20200;-67
2022/12/13 03:15:00;;;;;;;17.83;10.33;;;;;;;;;;5062982;28;20465;-67
2022/12/13 03:17:30;;;;;;;15.10;9.83;;;;;;;;;;5057275;28;20208;-67
2022/12/13 03:19:58;;;;;;;15.77;10.47;;;;;;;;;;5060622;28;20196;-67
2022/12/13 03:22:25;;;;;;;17.73;10.53;;;;;;;;;;5068674;28;20207;-67
2022/12/13 03:24:53;;;;;;;17.70;10.47;;;;;;;;;;5064257;28;20210;-67
2022/12/13 03:27:20;;;;;;;16.23;9.30;;;;;;;;;;5061583;28;20238;-67
2022/12/13 03:29:47;;;;;;;16.77;10.40;;;;;;;;;;5061406;28;20203;-67
2022/12/13 03:32:14;;;;;;;17.07;10.50;;;;;;;;;;5055868;28;20212;-67
2022/12/13 03:34:41;;;;;;;15.37;10.67;;;;;;;;;;5059048;28;20207;-67
2022/12/13 03:37:10;;;;;;;17.57;10.50;;;;;;;;;;5062266;28;20195;-67
2022/12/13 03:39:37;;;;;;;17.90;10.07;;;;;;;;;;5061494;28;20213;-67
2022/12/13 03:42:04;;;;;;;15.17;10.07;;;;;;;;;;5060346;28;20203;-67
2022/12/13 03:44:31;;;;;;;14.90;9.93;;;;;;;;;;5073488;28;20213;-67
2022/12/13 03:46:58;;;;;;;16.63;10.83;;;;;;;;;;5062719;28;20218;-67
2022/12/13 03:49:25;;;;;;;16.70;10.37;;;;;;;;;;5066334;28;20209;-67
2022/12/13 03:51:52;;;;;;;17.50;10.90;;;;;;;;;;5059397;28;20199;-67
2022/12/13 03:54:21;;;;;;;17.43;10.60;;;;;;;;;;5055197;28;20204;-67
2022/12/13 03:56:48;;;;;;;16.73;10.50;;;;;;;;;;5064299;28;20194;-67
2022/12/13 03:59:15;;;;;;;16.03;11.00;;;;;;;;;;5061729;28;20214;-67
2022/12/13 04:01:42;;;;;;;15.87;10.47;;;;;;;;;;5059326;28;20200;-67
2022/12/13 04:04:09;;;;;;;16.57;11.03;;;;;;;;;;5058616;28;20196;-67
2022/12/13 04:06:37;;;;;;;14.43;10.03;;;;;;;;;;5056279;28;20230;-67
2022/12/13 04:09:04;;;;;;;19.80;10.73;;;;;;;;;;5056860;28;20200;-67
2022/12/13 04:14:17;;;;;;;17.13;10.50;;;;;;;;;;5055314;28;20214;-67
2022/12/13 04:16:44;;;;;;;16.50;10.77;;;;;;;;;;5058849;28;20199;-67
2022/12/13 04:19:11;;;;;;;16.47;10.30;;;;;;;;;;5058882;28;20206;-67
2022/12/13 04:21:38;;;;;;;16.73;10.23;;;;;;;;;;5059110;28;20199;-67
2022/12/13 04:24:06;;;;;;;18.53;11.10;;;;;;;;;;5061256;28;20202;-67
2022/12/13 04:26:34;;;;;;;17.60;10.40;;;;;;;;;;5057698;28;20209;-67
2022/12/13 04:29:01;;;;;;;14.67;10.13;;;;;;;;;;5060510;28;20294;-67
2022/12/13 04:31:28;;;;;;;17.50;11.23;;;;;;;;;;5055370;28;20294;-67
2022/12/13 04:33:56;;;;;;;17.80;10.17;;;;;;;;;;5058774;28;20203;-67
2022/12/13 04:36:23;;;;;;;16.40;9.97;;;;;;;;;;5055043;28;20211;-67
2022/12/13 04:38:50;;;;;;;17.93;10.97;;;;;;;;;;5055220;28;20206;-67
2022/12/13 04:41:18;;;;;;;19.43;11.33;;;;;;;;;;5061177;28;20207;-67
2022/12/13 04:43:50;;;;;;;17.00;10.80;;;;;;;;;;5055410;28;20239;-67
2022/12/13 04:46:18;;;;;;;16.27;10.67;;;;;;;;;;5056270;28;20229;-67
2022/12/13 04:48:45;;;;;;;16.53;10.23;;;;;;;;;;5058150;28;20207;-66
2022/12/13 04:51:12;;;;;;;17.07;10.53;;;;;;;;;;5056274;28;20195;-67
2022/12/13 04:53:39;;;;;;;16.30;10.43;;;;;;;;;;5058850;28;20199;-67
2022/12/13 04:56:06;;;;;;;17.70;10.83;;;;;;;;;;5058320;28;20198;-66
2022/12/13 04:58:34;;;;;;;15.77;10.27;;;;;;;;;;5057825;28;20290;-67
2022/12/13 05:01:02;;;;;;;17.20;11.33;;;;;;;;;;5057215;28;20213;-67
2022/12/13 05:03:29;;;;;;;18.43;10.93;;;;;;;;;;5063213;28;20217;-67
2022/12/13 05:05:56;;;;;;;16.40;10.60;;;;;;;;;;5057317;28;20208;-67
2022/12/13 05:08:24;;;;;;;16.57;9.77;;;;;;;;;;5060694;28;20207;-67
2022/12/13 05:10:51;;;;;;;15.97;10.77;;;;;;;;;;5057301;28;20207;-67
2022/12/13 05:13:18;;;;;;;13.57;10.03;;;;;;;;;;5060656;28;20209;-66
2022/12/13 05:15:45;;;;;;;14.87;10.03;;;;;;;;;;5060077;28;20210;-66
2022/12/13 05:18:13;;;;;;;20.97;10.93;;;;;;;;;;5066478;28;20294;-67
2022/12/13 05:20:40;;;;;;;17.67;10.77;;;;;;;;;;5061400;28;20195;-66
2022/12/13 05:23:08;;;;;;;18.57;10.67;;;;;;;;;;5055327;28;20210;-67
2022/12/13 05:25:35;;;;;;;15.73;10.03;;;;;;;;;;5064661;28;20199;-67
2022/12/13 05:28:02;;;;;;;15.77;10.50;;;;;;;;;;5059090;28;20288;-66
2022/12/13 05:30:29;;;;;;;15.07;9.53;;;;;;;;;;5068745;28;20196;-66
2022/12/13 05:32:57;;;;;;;17.07;10.77;;;;;;;;;;5067026;28;20198;-66
2022/12/13 05:35:25;;;;;;;15.70;9.87;;;;;;;;;;5065513;28;20211;-67
2022/12/13 05:37:52;;;;;;;16.53;10.40;;;;;;;;;;5060714;28;20200;-68
2022/12/13 05:40:20;;;;;;;17.23;10.80;;;;;;;;;;5059125;28;20207;-67
2022/12/13 05:42:47;;;;;;;18.83;11.13;;;;;;;;;;5059275;28;20242;-67
2022/12/13 05:45:14;;;;;;;18.03;11.27;;;;;;;;;;5064287;28;20213;-67
2022/12/13 05:47:41;;;;;;;17.90;10.83;;;;;;;;;;5060124;28;20266;-67
2022/12/13 05:50:09;;;;;;;17.63;11.13;;;;;;;;;;5062219;28;20195;-67
2022/12/13 05:52:38;;;;;;;15.47;10.47;;;;;;;;;;5061215;28;20272;-67
2022/12/13 05:55:05;;;;;;;15.40;10.47;;;;;;;;;;5066146;28;20249;-67
2022/12/13 05:57:33;;;;;;;15.93;10.57;;;;;;;;;;5058527;28;20203;-67
2022/12/13 06:00:00;;;;;;;17.33;10.33;;;;;;;;;;5065431;28;20218;-67
2022/12/13 06:02:27;;;;;;;18.73;11.33;;;;;;;;;;5060596;28;20203;-67
2022/12/13 06:04:54;;;;;;;16.07;10.47;;;;;;;;;;5063215;28;20264;-67
2022/12/13 06:07:21;;;;;;;18.93;11.77;;;;;;;;;;5059062;28;20228;-67
2022/12/13 06:09:50;;;;;;;18.93;12.63;;;;;;;;;;5056306;28;20302;-67
2022/12/13 06:12:17;;;;;;;16.93;11.83;;;;;;;;;;5060799;28;20199;-67
2022/12/13 06:14:44;;;;;;;18.83;12.63;;;;;;;;;;5057486;28;20235;-67
2022/12/13 06:17:11;;;;;;;19.17;12.30;;;;;;;;;;5058316;28;20205;-67
2022/12/13 06:19:38;;;;;;;19.37;12.30;;;;;;;;;;5065776;28;20210;-67
2022/12/13 06:22:05;;;;;;;17.70;11.63;;;;;;;;;;5062893;28;20338;-67
2022/12/13 06:24:32;;;;;;;15.77;10.57;;;;;;;;;;5059837;28;20203;-67
2022/12/13 06:27:01;;;;;;;16.10;11.00;;;;;;;;;;5055372;28;20230;-67
2022/12/13 06:29:28;;;;;;;16.87;10.60;;;;;;;;;;5058543;28;20206;-67
2022/12/13 06:31:56;;;;;;;15.67;10.10;;;;;;;;;;5063674;28;20209;-67
2022/12/13 06:34:23;;;;;;;15.57;9.70;;;;;;;;;;5064161;28;20210;-67
2022/12/13 06:36:51;;;;;;;18.00;11.10;;;;;;;;;;5060285;28;20203;-67
2022/12/13 06:39:18;;;;;;;15.87;10.37;;;;;;;;;;5057316;28;20213;-67
2022/12/13 06:41:45;;;;;;;15.57;9.67;;;;;;;;;;5063679;28;20205;-67
2022/12/13 06:44:14;;;;;;;16.73;10.13;;;;;;;;;;5057093;28;20236;-67
2022/12/13 06:46:41;;;;;;;14.40;9.50;;;;;;;;;;5061316;28;20445;-67
2022/12/13 06:49:08;;;;;;;23.03;12.73;;;;;;;;;;5061465;28;20230;-67
2022/12/13 06:51:36;;;;;;;27.73;15.07;;;;;;;;;;5057727;28;20208;-67
2022/12/13 06:54:03;;;;;;;22.03;13.30;;;;;;;;;;5063422;28;20195;-67
2022/12/13 06:56:30;;;;;;;19.70;11.60;;;;;;;;;;5058944;28;20198;-67
2022/12/13 06:58:58;;;;;;;17.37;10.73;;;;;;;;;;5055326;28;20198;-67
2022/12/13 07:01:26;;;;;;;19.60;12.20;;;;;;;;;;5057327;28;20209;-67
2022/12/13 07:03:56;;;;;;;25.27;14.90;;;;;;;;;;5056862;28;20199;-67
2022/12/13 07:06:24;;;;;;;28.80;16.17;;;;;;;;;;5059047;28;20277;-67
2022/12/13 07:08:52;;;;;;;27.57;15.30;;;;;;;;;;5057209;28;20203;-67
2022/12/13 07:11:20;;;;;;;23.13;14.43;;;;;;;;;;5060501;28;20203;-67
2022/12/13 07:13:48;;;;;;;20.83;13.13;;;;;;;;;;5059437;28;20207;-67
2022/12/13 07:16:15;;;;;;;21.30;12.73;;;;;;;;;;5060150;28;20215;-67
2022/12/13 07:18:44;;;;;;;20.87;13.17;;;;;;;;;;5060342;28;20210;-67
2022/12/13 07:21:13;;;;;;;19.17;12.03;;;;;;;;;;5057226;28;20195;-67
2022/12/13 07:23:40;;;;;;;20.27;12.80;;;;;;;;;;5058786;28;20203;-67
2022/12/13 07:26:08;;;;;;;17.90;10.80;;;;;;;;;;5061548;28;20199;-67
2022/12/13 07:28:36;;;;;;;16.40;11.37;;;;;;;;;;5055555;28;20269;-67
2022/12/13 07:31:04;;;;;;;17.93;11.00;;;;;;;;;;5059447;28;20262;-67
2022/12/13 07:33:31;;;;;;;18.00;11.67;;;;;;;;;;5057702;28;20210;-67
2022/12/13 07:36:02;;;;;;;22.00;12.73;;;;;;;;;;5058485;28;20203;-67
2022/12/13 07:38:29;;;;;;;20.07;12.27;;;;;;;;;;5056514;28;20339;-67
2022/12/13 07:40:57;;;;;;;21.73;14.03;;;;;;;;;;5058497;28;20206;-67
2022/12/13 07:43:24;;;;;;;20.70;12.67;;;;;;;;;;5057950;28;20239;-67
2022/12/13 07:45:52;;;;;;;21.40;12.37;;;;;;;;;;5062709;28;20211;-67
2022/12/13 07:48:19;;;;;;;19.57;12.43;;;;;;;;;;5060429;28;20227;-67
2022/12/13 07:50:46;;;;;;;21.37;12.70;;;;;;;;;;5064415;28;20200;-66
2022/12/13 07:53:14;;;;;;;18.27;11.53;;;;;;;;;;5061653;28;20199;-66
2022/12/13 07:55:42;;;;;;;18.53;11.50;;;;;;;;;;5058257;28;20199;-67
2022/12/13 07:58:10;;;;;;;16.47;10.30;;;;;;;;;;5058849;28;20214;-67
2022/12/13 08:00:37;;;;;;;18.03;11.03;;;;;;;;;;5057136;28;20207;-67
2022/12/13 08:03:05;;;;;;;18.13;11.80;;;;;;;;;;5062209;28;20199;-66
2022/12/13 08:05:32;;;;;;;18.17;11.40;;;;;;;;;;5056345;28;20203;-67
2022/12/13 08:08:00;;;;;;;19.83;13.37;;;;;;;;;;5055044;28;20222;-67
2022/12/13 08:10:29;;;;;;;16.60;11.47;;;;;;;;;;5057249;28;20536;-67
2022/12/13 08:12:56;;;;;;;20.23;12.50;;;;;;;;;;5055844;28;20203;-66
2022/12/13 08:15:24;;;;;;;19.33;13.07;;;;;;;;;;5059778;28;20199;-67
2022/12/13 08:17:52;;;;;;;19.10;12.93;;;;;;;;;;5057376;28;20222;-66
2022/12/13 08:20:19;;;;;;;19.17;12.27;;;;;;;;;;5056734;28;20282;-66
2022/12/13 08:22:47;;;;;;;20.87;12.63;;;;;;;;;;5062149;28;20199;-66
2022/12/13 08:25:14;;;;;;;18.93;12.87;;;;;;;;;;5060505;28;20201;-66
2022/12/13 08:27:43;;;;;;;18.47;11.80;;;;;;;;;;5064449;28;20218;-66
2022/12/13 08:30:10;;;;;;;17.73;11.83;;;;;;;;;;5056997;28;20299;-66
2022/12/13 08:32:38;;;;;;;20.40;12.60;;;;;;;;;;5059370;28;20215;-66
2022/12/13 08:35:05;;;;;;;21.03;13.30;;;;;;;;;;5055924;28;20207;-66
2022/12/13 08:37:33;;;;;;;19.03;11.47;;;;;;;;;;5061208;28;20214;-66
2022/12/13 08:40:00;;;;;;;21.17;13.40;;;;;;;;;;5056076;28;20195;-66
2022/12/13 08:42:27;;;;;;;23.37;14.03;;;;;;;;;;5060151;28;20245;-66
2022/12/13 08:44:55;;;;;;;25.90;14.77;;;;;;;;;;5062938;28;20209;-66
2022/12/13 08:47:24;;;;;;;26.20;16.53;;;;;;;;;;5064187;28;20223;-66
2022/12/13 08:49:51;;;;;;;29.20;16.70;;;;;;;;;;5065458;28;20238;-66
2022/12/13 08:52:18;;;;;;;29.43;17.67;;;;;;;;;;5058392;28;20324;-66
2022/12/13 08:54:45;;;;;;;31.17;18.83;;;;;;;;;;5056383;28;20221;-66
2022/12/13 08:57:12;;;;;;;27.63;17.80;;;;;;;;;;5059230;28;20205;-66
2022/12/13 08:59:39;;;;;;;29.83;17.60;;;;;;;;;;5053153;28;20207;-66
2022/12/13 09:02:10;;;;;;;34.43;19.13;;;;;;;;;;5057350;28;20214;-66
2022/12/13 09:04:37;;;;;;;28.93;17.47;;;;;;;;;;5054709;28;20207;-66
2022/12/13 09:07:04;;;;;;;29.13;17.17;;;;;;;;;;5058686;28;20306;-66
2022/12/13 09:09:32;;;;;;;27.87;16.60;;;;;;;;;;5063835;28;20203;-66
2022/12/13 09:11:59;;;;;;;22.40;14.17;;;;;;;;;;5066439;28;20204;-66
2022/12/13 09:14:26;;;;;;;24.73;15.13;;;;;;;;;;5058076;28;20211;-66
2022/12/13 09:16:54;;;;;;;25.43;15.80;;;;;;;;;;5055827;28;20231;-66
2022/12/13 09:19:24;;;;;;;26.27;16.90;;;;;;;;;;5063633;28;20210;-66
2022/12/13 09:21:51;;;;;;;23.90;16.03;;;;;;;;;;5064171;28;20324;-66
2022/12/13 09:24:19;;;;;;;26.93;16.97;;;;;;;;;;5065912;28;20206;-66
2022/12/13 09:26:46;;;;;;;29.30;18.17;;;;;;;;;;5059708;28;20200;-66
2022/12/13 09:29:15;;;;;;;23.03;16.17;;;;;;;;;;5056479;28;20196;-66
2022/12/13 09:31:42;;;;;;;23.97;14.73;;;;;;;;;;5062344;28;20207;-66
2022/12/13 09:34:09;;;;;;;20.40;14.10;;;;;;;;;;5064576;28;20239;-66
2022/12/13 09:36:38;;;;;;;25.03;16.53;;;;;;;;;;5065477;28;20213;-66
2022/12/13 09:39:05;;;;;;;22.33;13.93;;;;;;;;;;5060763;28;20260;-66
2022/12/13 09:41:34;;;;;;;23.87;15.77;;;;;;;;;;5058442;28;20213;-66
2022/12/13 09:44:04;;;;;;;20.90;13.77;;;;;;;;;;5056772;28;20317;-66
2022/12/13 09:46:32;;;;;;;19.50;13.20;;;;;;;;;;5056336;28;20294;-66
2022/12/13 09:49:02;;;;;;;19.43;12.60;;;;;;;;;;5061066;28;20222;-66
2022/12/13 09:51:30;;;;;;;17.57;12.00;;;;;;;;;;5059468;28;20199;-66
2022/12/13 09:53:59;;;;;;;19.57;12.70;;;;;;;;;;5062666;28;20293;-66
2022/12/13 09:56:26;;;;;;;20.20;12.10;;;;;;;;;;5058871;28;20196;-66
2022/12/13 09:58:55;;;;;;;20.40;12.87;;;;;;;;;;5059027;28;20207;-66
2022/12/13 10:01:22;;;;;;;19.07;12.83;;;;;;;;;;5065468;28;20203;-66
2022/12/13 10:03:50;;;;;;;20.63;13.80;;;;;;;;;;5054308;28;20200;-66
2022/12/13 10:06:18;;;;;;;18.07;12.10;;;;;;;;;;5057410;28;20212;-66
2022/12/13 10:08:48;;;;;;;20.20;13.17;;;;;;;;;;5056511;28;20231;-65
2022/12/13 10:11:17;;;;;;;17.90;12.60;;;;;;;;;;5059054;28;20348;-66
2022/12/13 10:13:47;;;;;;;19.27;12.63;;;;;;;;;;5061165;28;20211;-66
2022/12/13 10:16:16;;;;;;;20.30;12.57;;;;;;;;;;5061134;28;20203;-66
2022/12/13 10:18:44;;;;;;;15.57;10.60;;;;;;;;;;5058239;28;20268;-66
2022/12/13 10:21:14;;;;;;;18.37;11.60;;;;;;;;;;5058199;28;20227;-66
2022/12/13 10:23:41;;;;;;;16.60;11.73;;;;;;;;;;5062624;28;20214;-65
2022/12/13 10:26:09;;;;;;;17.63;11.50;;;;;;;;;;5061467;28;20196;-65
2022/12/13 10:28:38;;;;;;;16.37;10.57;;;;;;;;;;5058868;28;20246;-65
2022/12/13 10:31:05;;;;;;;16.87;10.87;;;;;;;;;;5063226;28;20207;-65
2022/12/13 10:33:33;;;;;;;16.90;10.57;;;;;;;;;;5058253;28;20206;-65
2022/12/13 10:36:08;;;;;;;18.43;11.30;;;;;;;;;;5063283;28;20198;-65
2022/12/13 10:38:36;;;;;;;15.53;10.93;;;;;;;;;;5061150;28;20204;-65
2022/12/13 10:41:04;;;;;;;15.83;11.27;;;;;;;;;;5054672;28;20277;-65
2022/12/13 10:43:31;;;;;;;16.03;11.00;;;;;;;;;;5059363;28;20231;-65
2022/12/13 10:46:01;;;;;;;16.07;9.67;;;;;;;;;;5061204;28;20202;-65
2022/12/13 10:48:31;;;;;;;13.83;9.73;;;;;;;;;;5056632;28;20229;-65
2022/12/13 10:51:00;;;;;;;13.13;9.00;;;;;;;;;;5063599;28;20226;-65
2022/12/13 10:53:30;;;;;;;13.57;8.97;;;;;;;;;;5062376;28;20203;-65
2022/12/13 10:55:58;;;;;;;14.27;8.93;;;;;;;;;;5056700;28;20211;-65
2022/12/13 10:58:34;;;;;;;15.27;9.23;;;;;;;;;;5058213;28;20206;-65
2022/12/13 11:01:10;;;;;;;12.30;8.23;;;;;;;;;;5059073;28;20199;-65
2022/12/13 11:03:37;;;;;;;13.83;8.60;;;;;;;;;;5061698;28;20206;-65
2022/12/13 11:06:05;;;;;;;13.10;9.17;;;;;;;;;;5065032;28;20213;-66
2022/12/13 11:08:32;;;;;;;18.27;11.00;;;;;;;;;;5060310;28;20207;-65
2022/12/13 11:11:00;;;;;;;18.73;10.87;;;;;;;;;;5060495;28;20203;-65
2022/12/13 11:13:32;;;;;;;21.10;12.03;;;;;;;;;;5061303;28;20209;-65
2022/12/13 12:36:32;;;;;;;11.53;8.03;;;;;;;;;;5020129;22;20624;-67
2022/12/13 12:39:06;;;;;;;11.40;8.33;;;;;;;;;;4991924;28;20212;-66
2022/12/13 12:41:36;;;;;;;11.43;8.43;;;;;;;;;;4985158;28;20254;-66
2022/12/13 12:44:06;;;;;;;10.93;8.07;;;;;;;;;;4988017;28;20219;-66
2022/12/13 12:46:39;;;;;;;13.47;8.70;;;;;;;;;;4981417;28;20221;-66
2022/12/13 12:49:19;;;;;;;14.60;9.23;;;;;;;;;;4982079;28;20202;-65
2022/12/13 12:51:51;;;;;;;11.30;7.87;;;;;;;;;;4981902;28;20291;-65
2022/12/13 12:54:24;;;;;;;10.67;7.57;;;;;;;;;;4985387;28;20230;-65
2022/12/13 12:56:57;;;;;;;11.33;7.50;;;;;;;;;;4989305;28;20206;-65
2022/12/13 12:59:30;;;;;;;10.47;6.97;;;;;;;;;;4984783;28;20201;-65
2022/12/13 13:02:01;;;;;;;29.47;15.53;;;;;;;;;;4992158;28;20214;-65
2022/12/13 13:04:34;;;;;;;29.50;15.37;;;;;;;;;;4992696;28;20207;-66
2022/12/13 13:07:07;;;;;;;25.57;14.43;;;;;;;;;;4989422;28;20213;-67
2022/12/13 13:09:35;;;;;;;22.23;13.63;;;;;;;;;;4985047;28;20211;-67
2022/12/13 13:12:03;;;;;;;21.70;11.80;;;;;;;;;;4993954;28;20217;-66
2022/12/13 13:14:32;;;;;;;19.17;11.73;;;;;;;;;;4988584;28;20226;-67
2022/12/13 13:16:59;;;;;;;19.47;11.40;;;;;;;;;;4990357;28;20224;-66
2022/12/13 13:19:43;;;;;;;12.37;8.53;;;;;;;;;;4984762;28;20216;-67
2022/12/13 13:22:25;;;;;;;15.00;9.33;;;;;;;;;;4989642;28;20220;-67
2022/12/13 13:25:00;;;;;;;13.57;8.50;;;;;;;;;;4992024;28;20208;-66
2022/12/13 13:27:29;;;;;;;12.83;8.10;;;;;;;;;;4981430;28;20211;-66
2022/12/13 13:30:05;;;;;;;12.53;7.83;;;;;;;;;;4999969;28;20227;-66
2022/12/13 13:32:33;;;;;;;18.30;10.47;;;;;;;;;;4990171;28;20213;-66
2022/12/13 13:35:18;;;;;;;15.63;9.53;;;;;;;;;;4988996;28;20236;-66
2022/12/13 13:37:46;;;;;;;19.93;11.20;;;;;;;;;;4996176;28;20217;-67
2022/12/13 13:40:35;;;;;;;17.33;10.97;;;;;;;;;;4975815;28;20202;-67
2022/12/13 13:43:03;;;;;;;16.07;9.53;;;;;;;;;;4977071;28;20226;-67
2022/12/13 13:45:30;;;;;;;11.40;7.80;;;;;;;;;;4972125;28;20211;-67
2022/12/13 13:48:16;;;;;;;10.93;6.80;;;;;;;;;;4971634;28;20206;-67
2022/12/13 13:51:02;;;;;;;10.07;7.30;;;;;;;;;;4971582;28;20222;-67
2022/12/13 13:53:51;;;;;;;8.00;6.07;;;;;;;;;;4970843;28;20213;-67
2022/12/13 13:56:30;;;;;;;7.77;5.27;;;;;;;;;;4969125;28;20310;-67
2022/12/13 13:59:13;;;;;;;8.50;5.77;;;;;;;;;;4971154;28;20214;-67
2022/12/13 14:02:11;;;;;;;7.97;5.70;;;;;;;;;;4975160;28;20465;-66
2022/12/13 14:05:00;;;;;;;10.60;5.90;;;;;;;;;;4978216;28;20197;-67
2022/12/13 14:07:42;;;;;;;8.33;5.67;;;;;;;;;;4977691;28;20295;-67
2022/12/13 14:10:17;;;;;;;7.70;5.63;;;;;;;;;;4970851;28;20214;-67
2022/12/13 14:13:02;;;;;;;10.20;6.57;;;;;;;;;;4968075;28;20205;-66
2022/12/13 14:15:47;;;;;;;7.60;5.47;;;;;;;;;;4973460;28;20228;-66
2022/12/13 14:18:34;;;;;;;7.33;5.43;;;;;;;;;;4978862;28;20204;-66
2022/12/13 14:21:06;;;;;;;8.00;5.90;;;;;;;;;;4967727;28;20998;-66
2022/12/13 14:23:45;;;;;;;7.90;5.43;;;;;;;;;;4970183;28;20205;-65
2022/12/13 14:26:20;;;;;;;6.80;5.10;;;;;;;;;;4967522;28;20216;-65
2022/12/13 14:28:50;;;;;;;7.10;5.27;;;;;;;;;;4967295;28;20228;-67
2022/12/13 14:31:19;;;;;;;7.03;5.00;;;;;;;;;;4968413;28;20216;-66
2022/12/13 14:33:46;;;;;;;8.43;5.40;;;;;;;;;;4967155;28;20233;-67
2022/12/13 14:36:17;;;;;;;7.10;5.10;;;;;;;;;;4976840;28;20249;-67
2022/12/13 14:38:46;;;;;;;6.70;4.80;;;;;;;;;;4973220;28;20206;-65
2022/12/13 14:41:16;;;;;;;7.83;5.10;;;;;;;;;;4975390;28;20217;-65
2022/12/13 14:43:44;;;;;;;8.10;5.10;;;;;;;;;;4974245;28;20217;-66
2022/12/13 14:46:13;;;;;;;7.63;5.47;;;;;;;;;;4973493;28;20298;-65
2022/12/13 14:48:45;;;;;;;10.00;6.87;;;;;;;;;;4975685;28;20216;-65
2022/12/13 14:51:24;;;;;;;11.33;7.60;;;;;;;;;;4972571;28;20343;-66
2022/12/13 14:53:53;;;;;;;11.97;7.10;;;;;;;;;;4968481;28;20213;-65
2022/12/13 14:56:20;;;;;;;12.90;7.30;;;;;;;;;;4974720;28;20221;-66
2022/12/13 14:58:53;;;;;;;12.97;7.30;;;;;;;;;;4976129;28;20229;-66
2022/12/13 15:01:28;;;;;;;13.27;7.27;;;;;;;;;;4969349;28;20206;-65
2022/12/13 15:03:55;;;;;;;13.67;7.43;;;;;;;;;;4975195;28;20216;-65
2022/12/13 15:06:24;;;;;;;11.20;8.07;;;;;;;;;;4968317;28;20201;-66
2022/12/13 15:08:51;;;;;;;14.53;8.47;;;;;;;;;;4968828;28;20227;-65
2022/12/13 15:11:18;;;;;;;15.60;8.00;;;;;;;;;;4974547;28;20212;-66
2022/12/13 15:13:49;;;;;;;15.63;8.50;;;;;;;;;;4971108;28;20211;-65
2022/12/13 15:16:19;;;;;;;17.37;8.33;;;;;;;;;;4969794;28;20218;-65
2022/12/13 15:18:47;;;;;;;18.37;7.50;;;;;;;;;;4970982;28;20222;-66
2022/12/13 15:21:18;;;;;;;17.07;7.37;;;;;;;;;;4967381;28;20199;-66
2022/12/13 15:23:47;;;;;;;19.83;8.83;;;;;;;;;;4969484;28;20206;-65
2022/12/13 15:26:16;;;;;;;17.03;8.43;;;;;;;;;;4969232;28;20201;-66
2022/12/13 15:28:44;;;;;;;10.43;6.27;;;;;;;;;;4970722;28;20211;-67
2022/12/13 15:31:12;;;;;;;14.20;6.83;;;;;;;;;;4971393;28;20216;-67
2022/12/13 15:33:39;;;;;;;14.73;8.27;;;;;;;;;;4967102;28;20204;-67
2022/12/13 15:36:08;;;;;;;14.57;8.03;;;;;;;;;;4970976;28;20241;-67
2022/12/13 15:38:36;;;;;;;8.57;6.07;;;;;;;;;;4970185;28;20255;-67
2022/12/13 15:41:05;;;;;;;9.67;6.30;;;;;;;;;;4974871;28;20201;-67
2022/12/13 15:43:36;;;;;;;7.97;5.77;;;;;;;;;;4970490;28;20214;-67
2022/12/13 15:46:05;;;;;;;10.13;5.93;;;;;;;;;;4973077;28;20266;-66
2022/12/13 15:48:35;;;;;;;9.97;5.60;;;;;;;;;;4967066;28;20198;-67
2022/12/13 15:51:06;;;;;;;7.83;5.77;;;;;;;;;;4970352;28;20203;-67
2022/12/13 15:53:33;;;;;;;6.83;5.20;;;;;;;;;;4968316;28;20213;-67
2022/12/13 15:56:01;;;;;;;5.73;4.87;;;;;;;;;;4969727;28;20292;-67
2022/12/13 15:58:32;;;;;;;5.53;4.30;;;;;;;;;;4969561;28;20208;-67